Flight Track Log - Related Links

Times and Time Zones

All times are in EDT time to prevent confusion due to time zone crossing. See the EJA102 flight status page for this flight to view local times or setup timezone preferences in your user account.

Time Position Orientation Groundspeed Altitude Reporting Facility
EDT Latitude Longitude Course Direction KTS MPH feet Rate Location/Type
Wed 11:39:36 AM 38.9833 -77.5000 90° East 212 244 3,400  Level Potomac TRACON
Wed 11:40:36 AM 39.0500 -77.5000 360° North 268 308 5,800 1,895 Climbing Potomac TRACON
Wed 11:41:30 AM 39.1000 -77.4500 38° Northeast 298 343 7,000 1,047 Climbing Potomac TRACON
Wed 11:43:05 AM 39.1717 -77.3319 52° Northeast 307 353 8,400 1,692 Climbing Washington Center
Wed 11:44:06 AM 39.2339 -77.2208 54° Northeast 307 353 11,400 2,500 Climbing Washington Center
Wed 11:45:00 AM 39.3167 -76.8571 90° East  Level FlightAware Approximate
Wed 11:45:05 AM 39.2872 -77.1253 54° Northeast 319 367 13,400  Level Washington Center
Wed 11:46:05 AM 39.3322 -77.0136 62° Northeast 329 379 15,200 1,736 Climbing Washington Center
Wed 11:47:06 AM 39.3172 -76.8767 98° East 335 386 16,900 1,721 Climbing Washington Center
Wed 11:48:07 AM 39.2997 -76.7447 100° East 356 410 18,700 1,785 Climbing Washington Center
Wed 11:49:07 AM 39.2822 -76.6078 99° East 372 428 20,500 1,169 Climbing Washington Center
Wed 11:50:05 AM 39.2644 -76.4656 99° East 383 441 21,000 252 Climbing Washington Center
Wed 11:51:06 AM 39.2425 -76.3125 100° East 402 463 21,000  Level Washington Center
Wed 11:52:07 AM 39.2206 -76.1517 100° East 436 502 21,000  Level Washington Center
Wed 11:53:07 AM 39.2086 -75.9908 95° East 452 520 21,000  Level Washington Center
Wed 11:54:05 AM 39.2444 -75.8356 73° East 445 512 21,000  Level Washington Center
Wed 11:55:06 AM 39.3156 -75.7178 52° Northeast 445 512 21,000  Level Washington Center
Wed 11:56:06 AM 39.4011 -75.5781 52° Northeast 445 512 21,000  Level Washington Center
Wed 11:57:07 AM 39.4675 -75.4625 53° Northeast 451 519 21,000  Level Washington Center
Wed 11:59:03 AM 39.6281 -75.1967 52° Northeast 476 548 21,000  Level New York Center
Wed 12:00:03 PM 39.6875 -75.0547 61° Northeast 460 529 21,000  Level New York Center
Wed 12:01:04 PM 39.7247 -74.8925 73° East 455 524 21,000  Level New York Center
Wed 12:02:05 PM 39.7811 -74.7661 60° Northeast 449 517 21,000  Level New York Center
Wed 12:03:05 PM 39.8511 -74.6106 60° Northeast 449 517 21,000  Level New York Center
Wed 12:04:03 PM 39.9161 -74.4625 60° Northeast 455 524 21,000  Level New York Center
Wed 12:05:04 PM 39.9808 -74.3250 58° Northeast 455 524 21,000  Level New York Center
Wed 12:06:05 PM 40.0411 -74.1953 59° Northeast 455 524 21,000  Level New York Center
Wed 12:08:07 PM 40.1781 -73.8875 60° Northeast 476 548 21,000  Level Boston Center
Wed 12:09:07 PM 40.2400 -73.7450 60° Northeast 461 531 21,000 -850 Level Boston Center
Wed 12:10:07 PM 40.3022 -73.5992 61° Northeast 461 531 19,300 -2,000 Descending Boston Center
Wed 12:11:07 PM 40.3844 -73.4861 46° Northeast 434 499 17,000 -1,200 Descending Boston Center
Wed 12:12:07 PM 40.4853 -73.4197 27° Northeast 405 466 16,900 -50 Descending Boston Center
Wed 12:13:07 PM 40.5917 -73.3803 16° North 388 447 16,900 66 Level Boston Center
Wed 12:13:38 PM 40.6500 -73.3500 21° North 402 463 17,000 -848 Climbing New York TRACON
Wed 12:14:39 PM 40.7500 -73.3167 14° North 414 476 15,600 -1,289 Descending New York TRACON
Wed 12:15:39 PM 40.8333 -73.2333 37° Northeast 341 392 14,400 -1,500 Descending New York TRACON
Wed 12:16:39 PM 40.8833 -73.1167 60° Northeast 342 394 12,600 -1,800 Descending New York TRACON
Wed 12:17:39 PM 40.9333 -73.0167 56° Northeast 336 387 10,800 -2,100 Descending New York TRACON
Wed 12:18:39 PM 41.0167 -73.0167 360° North 288 331 8,400 -2,316 Descending New York TRACON
Wed 12:19:33 PM 41.0667 -73.0333 346° North 268 308 6,400 -1,650 Descending New York TRACON
Wed 12:20:39 PM 41.1000 -73.1167 298° West 240 276 5,100 -952 Descending New York TRACON
Wed 12:21:39 PM 41.1167 -73.2167 283° West 242 278 4,400 -895 Descending New York TRACON
Wed 12:22:33 PM 41.1167 -73.2833 270° West 241 277 3,400 -650 Descending New York TRACON
Wed 12:23:39 PM 41.0833 -73.3667 242° Southwest 233 268 3,100 -400 Descending New York TRACON
Wed 12:24:33 PM 41.0500 -73.4333 236° Southwest 213 245 2,600 -556 Descending New York TRACON

Login

Don't have an account? Register now (free) for customized features, flight alerts, and more!